sensor_id;sensor_type;location;lat;lon;timestamp;P1;durP1;ratioP1;P2;durP2;ratioP2
17892;SDS011;9072;51.918;4.380;2023-11-21T00:00:45;12.67;;;8.20;;
17892;SDS011;9072;51.918;4.380;2023-11-21T00:03:16;15.70;;;9.07;;
17892;SDS011;9072;51.918;4.380;2023-11-21T00:05:50;10.57;;;7.90;;
17892;SDS011;9072;51.918;4.380;2023-11-21T00:08:19;13.33;;;8.30;;
17892;SDS011;9072;51.918;4.380;2023-11-21T00:10:48;14.67;;;8.90;;
17892;SDS011;9072;51.918;4.380;2023-11-21T00:13:16;16.33;;;9.30;;
17892;SDS011;9072;51.918;4.380;2023-11-21T00:15:44;16.37;;;10.20;;
17892;SDS011;9072;51.918;4.380;2023-11-21T00:18:25;17.00;;;10.07;;
17892;SDS011;9072;51.918;4.380;2023-11-21T00:20:53;17.53;;;10.40;;
17892;SDS011;9072;51.918;4.380;2023-11-21T00:23:24;16.50;;;9.87;;
17892;SDS011;9072;51.918;4.380;2023-11-21T00:25:52;15.90;;;10.23;;
17892;SDS011;9072;51.918;4.380;2023-11-21T00:28:21;19.73;;;11.07;;
17892;SDS011;9072;51.918;4.380;2023-11-21T00:30:54;16.63;;;10.73;;
17892;SDS011;9072;51.918;4.380;2023-11-21T00:33:30;18.30;;;9.70;;
17892;SDS011;9072;51.918;4.380;2023-11-21T00:36:01;15.33;;;9.60;;
17892;SDS011;9072;51.918;4.380;2023-11-21T00:38:29;15.00;;;9.77;;
17892;SDS011;9072;51.918;4.380;2023-11-21T00:41:06;15.83;;;9.33;;
17892;SDS011;9072;51.918;4.380;2023-11-21T00:43:33;14.57;;;8.73;;
17892;SDS011;9072;51.918;4.380;2023-11-21T00:46:03;11.43;;;9.17;;
17892;SDS011;9072;51.918;4.380;2023-11-21T00:48:38;13.77;;;8.43;;
17892;SDS011;9072;51.918;4.380;2023-11-21T00:51:08;13.00;;;8.73;;
17892;SDS011;9072;51.918;4.380;2023-11-21T00:53:37;11.40;;;8.47;;
17892;SDS011;9072;51.918;4.380;2023-11-21T00:56:05;13.27;;;9.23;;
17892;SDS011;9072;51.918;4.380;2023-11-21T00:58:34;12.83;;;8.93;;
17892;SDS011;9072;51.918;4.380;2023-11-21T01:01:02;13.03;;;9.40;;
17892;SDS011;9072;51.918;4.380;2023-11-21T01:03:39;15.33;;;9.27;;
17892;SDS011;9072;51.918;4.380;2023-11-21T01:06:09;14.50;;;8.37;;
17892;SDS011;9072;51.918;4.380;2023-11-21T01:08:43;15.03;;;9.80;;
17892;SDS011;9072;51.918;4.380;2023-11-21T01:11:11;10.90;;;8.90;;
17892;SDS011;9072;51.918;4.380;2023-11-21T01:13:42;14.00;;;9.60;;
17892;SDS011;9072;51.918;4.380;2023-11-21T01:16:12;14.37;;;8.87;;
17892;SDS011;9072;51.918;4.380;2023-11-21T01:18:44;13.80;;;8.83;;
17892;SDS011;9072;51.918;4.380;2023-11-21T01:21:19;13.27;;;9.20;;
17892;SDS011;9072;51.918;4.380;2023-11-21T01:23:51;14.40;;;9.37;;
17892;SDS011;9072;51.918;4.380;2023-11-21T01:26:21;13.93;;;8.73;;
17892;SDS011;9072;51.918;4.380;2023-11-21T01:28:50;16.20;;;9.17;;
17892;SDS011;9072;51.918;4.380;2023-11-21T01:31:18;12.70;;;8.63;;
17892;SDS011;9072;51.918;4.380;2023-11-21T01:33:48;13.97;;;8.63;;
17892;SDS011;9072;51.918;4.380;2023-11-21T01:36:16;12.33;;;8.43;;
17892;SDS011;9072;51.918;4.380;2023-11-21T01:38:46;13.30;;;8.33;;
17892;SDS011;9072;51.918;4.380;2023-11-21T01:41:21;12.53;;;8.17;;
17892;SDS011;9072;51.918;4.380;2023-11-21T01:43:48;13.67;;;8.07;;
17892;SDS011;9072;51.918;4.380;2023-11-21T01:46:16;11.73;;;7.67;;
17892;SDS011;9072;51.918;4.380;2023-11-21T01:48:54;10.73;;;7.33;;
17892;SDS011;9072;51.918;4.380;2023-11-21T01:51:22;9.50;;;6.90;;
17892;SDS011;9072;51.918;4.380;2023-11-21T01:53:56;11.27;;;6.10;;
17892;SDS011;9072;51.918;4.380;2023-11-21T01:56:25;13.03;;;7.23;;
17892;SDS011;9072;51.918;4.380;2023-11-21T01:58:56;15.97;;;6.83;;
17892;SDS011;9072;51.918;4.380;2023-11-21T02:01:25;13.23;;;7.03;;
17892;SDS011;9072;51.918;4.380;2023-11-21T02:04:03;11.50;;;7.40;;
17892;SDS011;9072;51.918;4.380;2023-11-21T02:06:33;11.73;;;7.47;;
17892;SDS011;9072;51.918;4.380;2023-11-21T02:09:03;12.23;;;7.30;;
17892;SDS011;9072;51.918;4.380;2023-11-21T02:11:39;11.87;;;6.73;;
17892;SDS011;9072;51.918;4.380;2023-11-21T02:14:06;9.13;;;6.10;;
17892;SDS011;9072;51.918;4.380;2023-11-21T02:16:34;12.97;;;6.80;;
17892;SDS011;9072;51.918;4.380;2023-11-21T02:19:07;12.13;;;7.00;;
17892;SDS011;9072;51.918;4.380;2023-11-21T02:21:44;11.30;;;7.00;;
17892;SDS011;9072;51.918;4.380;2023-11-21T02:24:24;9.77;;;6.60;;
17892;SDS011;9072;51.918;4.380;2023-11-21T02:26:59;14.17;;;7.50;;
17892;SDS011;9072;51.918;4.380;2023-11-21T02:29:29;10.93;;;6.57;;
17892;SDS011;9072;51.918;4.380;2023-11-21T02:32:04;12.87;;;7.10;;
17892;SDS011;9072;51.918;4.380;2023-11-21T02:34:43;9.90;;;6.60;;
17892;SDS011;9072;51.918;4.380;2023-11-21T02:37:11;12.30;;;7.13;;
17892;SDS011;9072;51.918;4.380;2023-11-21T02:39:41;11.83;;;6.60;;
17892;SDS011;9072;51.918;4.380;2023-11-21T02:42:10;11.50;;;7.10;;
17892;SDS011;9072;51.918;4.380;2023-11-21T02:44:39;12.40;;;6.40;;
17892;SDS011;9072;51.918;4.380;2023-11-21T02:47:13;11.63;;;7.13;;
17892;SDS011;9072;51.918;4.380;2023-11-21T02:49:50;13.97;;;7.60;;
17892;SDS011;9072;51.918;4.380;2023-11-21T02:52:20;12.97;;;7.40;;
17892;SDS011;9072;51.918;4.380;2023-11-21T02:54:50;12.57;;;7.23;;
17892;SDS011;9072;51.918;4.380;2023-11-21T02:57:30;12.10;;;7.23;;
17892;SDS011;9072;51.918;4.380;2023-11-21T02:59:59;10.30;;;7.30;;
17892;SDS011;9072;51.918;4.380;2023-11-21T03:02:32;11.47;;;7.47;;
17892;SDS011;9072;51.918;4.380;2023-11-21T03:05:05;11.27;;;7.90;;
17892;SDS011;9072;51.918;4.380;2023-11-21T03:07:40;10.23;;;8.07;;
17892;SDS011;9072;51.918;4.380;2023-11-21T03:10:12;9.90;;;7.83;;
17892;SDS011;9072;51.918;4.380;2023-11-21T03:12:42;13.50;;;8.77;;
17892;SDS011;9072;51.918;4.380;2023-11-21T03:15:13;12.20;;;7.40;;
17892;SDS011;9072;51.918;4.380;2023-11-21T03:17:42;14.47;;;8.50;;
17892;SDS011;9072;51.918;4.380;2023-11-21T03:20:11;12.50;;;7.80;;
17892;SDS011;9072;51.918;4.380;2023-11-21T03:22:42;14.83;;;8.40;;
17892;SDS011;9072;51.918;4.380;2023-11-21T03:25:17;12.93;;;8.77;;
17892;SDS011;9072;51.918;4.380;2023-11-21T03:27:44;12.73;;;8.03;;
17892;SDS011;9072;51.918;4.380;2023-11-21T03:30:19;15.77;;;9.07;;
17892;SDS011;9072;51.918;4.380;2023-11-21T03:32:50;11.53;;;8.80;;
17892;SDS011;9072;51.918;4.380;2023-11-21T03:35:25;11.53;;;8.30;;
17892;SDS011;9072;51.918;4.380;2023-11-21T03:37:53;13.97;;;8.80;;
17892;SDS011;9072;51.918;4.380;2023-11-21T03:40:37;13.93;;;8.63;;
17892;SDS011;9072;51.918;4.380;2023-11-21T03:43:05;14.43;;;8.67;;
17892;SDS011;9072;51.918;4.380;2023-11-21T03:45:38;15.50;;;9.33;;
17892;SDS011;9072;51.918;4.380;2023-11-21T03:48:06;13.43;;;8.73;;
17892;SDS011;9072;51.918;4.380;2023-11-21T03:50:34;12.97;;;8.73;;
17892;SDS011;9072;51.918;4.380;2023-11-21T03:53:01;10.53;;;8.63;;
17892;SDS011;9072;51.918;4.380;2023-11-21T03:55:31;11.30;;;9.17;;
17892;SDS011;9072;51.918;4.380;2023-11-21T03:58:00;13.10;;;8.60;;
17892;SDS011;9072;51.918;4.380;2023-11-21T04:00:28;12.80;;;8.83;;
17892;SDS011;9072;51.918;4.380;2023-11-21T04:02:56;14.07;;;9.47;;
17892;SDS011;9072;51.918;4.380;2023-11-21T04:05:27;13.50;;;9.30;;
17892;SDS011;9072;51.918;4.380;2023-11-21T04:07:57;13.10;;;9.30;;
17892;SDS011;9072;51.918;4.380;2023-11-21T04:10:25;16.00;;;10.63;;
17892;SDS011;9072;51.918;4.380;2023-11-21T04:13:01;17.87;;;11.17;;
17892;SDS011;9072;51.918;4.380;2023-11-21T04:15:31;16.43;;;11.13;;
17892;SDS011;9072;51.918;4.380;2023-11-21T04:17:59;14.20;;;10.03;;
17892;SDS011;9072;51.918;4.380;2023-11-21T04:20:36;12.87;;;9.27;;
17892;SDS011;9072;51.918;4.380;2023-11-21T04:23:05;16.60;;;9.60;;
17892;SDS011;9072;51.918;4.380;2023-11-21T04:25:41;12.13;;;9.13;;
17892;SDS011;9072;51.918;4.380;2023-11-21T04:28:19;11.83;;;9.77;;
17892;SDS011;9072;51.918;4.380;2023-11-21T04:30:51;11.97;;;9.60;;
17892;SDS011;9072;51.918;4.380;2023-11-21T04:33:32;13.80;;;9.67;;
17892;SDS011;9072;51.918;4.380;2023-11-21T04:36:00;11.67;;;10.03;;
17892;SDS011;9072;51.918;4.380;2023-11-21T04:38:27;14.57;;;9.50;;
17892;SDS011;9072;51.918;4.380;2023-11-21T04:41:05;11.83;;;9.37;;
17892;SDS011;9072;51.918;4.380;2023-11-21T04:43:37;13.17;;;9.27;;
17892;SDS011;9072;51.918;4.380;2023-11-21T04:46:11;10.27;;;8.70;;
17892;SDS011;9072;51.918;4.380;2023-11-21T04:48:38;12.07;;;9.20;;
17892;SDS011;9072;51.918;4.380;2023-11-21T04:51:15;12.70;;;10.03;;
17892;SDS011;9072;51.918;4.380;2023-11-21T04:53:48;12.93;;;9.43;;
17892;SDS011;9072;51.918;4.380;2023-11-21T04:56:24;13.13;;;9.97;;
17892;SDS011;9072;51.918;4.380;2023-11-21T04:59:03;15.60;;;10.13;;
17892;SDS011;9072;51.918;4.380;2023-11-21T05:01:36;16.60;;;10.17;;
17892;SDS011;9072;51.918;4.380;2023-11-21T05:04:04;14.80;;;10.30;;
17892;SDS011;9072;51.918;4.380;2023-11-21T05:06:33;14.20;;;9.70;;
17892;SDS011;9072;51.918;4.380;2023-11-21T05:09:03;13.77;;;9.57;;
17892;SDS011;9072;51.918;4.380;2023-11-21T05:11:37;15.97;;;9.03;;
17892;SDS011;9072;51.918;4.380;2023-11-21T05:14:09;11.97;;;8.20;;
17892;SDS011;9072;51.918;4.380;2023-11-21T05:16:37;14.77;;;8.23;;
17892;SDS011;9072;51.918;4.380;2023-11-21T05:19:05;14.43;;;8.00;;
17892;SDS011;9072;51.918;4.380;2023-11-21T05:21:34;15.43;;;8.93;;
17892;SDS011;9072;51.918;4.380;2023-11-21T05:24:05;14.10;;;8.77;;
17892;SDS011;9072;51.918;4.380;2023-11-21T05:26:33;13.27;;;9.40;;
17892;SDS011;9072;51.918;4.380;2023-11-21T05:29:03;17.33;;;9.90;;
17892;SDS011;9072;51.918;4.380;2023-11-21T05:31:34;15.97;;;9.83;;
17892;SDS011;9072;51.918;4.380;2023-11-21T05:34:07;11.03;;;8.70;;
17892;SDS011;9072;51.918;4.380;2023-11-21T05:36:34;12.60;;;8.60;;
17892;SDS011;9072;51.918;4.380;2023-11-21T05:39:03;19.40;;;9.77;;
17892;SDS011;9072;51.918;4.380;2023-11-21T05:41:32;11.67;;;8.57;;
17892;SDS011;9072;51.918;4.380;2023-11-21T05:44:00;11.30;;;8.43;;
17892;SDS011;9072;51.918;4.380;2023-11-21T05:46:29;13.43;;;9.23;;
17892;SDS011;9072;51.918;4.380;2023-11-21T05:48:59;12.17;;;8.90;;
17892;SDS011;9072;51.918;4.380;2023-11-21T05:51:28;11.07;;;8.23;;
17892;SDS011;9072;51.918;4.380;2023-11-21T05:53:58;12.97;;;8.07;;
17892;SDS011;9072;51.918;4.380;2023-11-21T05:56:43;11.90;;;8.10;;
17892;SDS011;9072;51.918;4.380;2023-11-21T05:59:18;15.37;;;9.10;;
17892;SDS011;9072;51.918;4.380;2023-11-21T06:01:49;13.47;;;8.90;;
17892;SDS011;9072;51.918;4.380;2023-11-21T06:04:25;12.30;;;8.40;;
17892;SDS011;9072;51.918;4.380;2023-11-21T06:06:54;13.03;;;9.13;;
17892;SDS011;9072;51.918;4.380;2023-11-21T06:09:21;12.83;;;8.57;;
17892;SDS011;9072;51.918;4.380;2023-11-21T06:11:51;13.00;;;9.00;;
17892;SDS011;9072;51.918;4.380;2023-11-21T06:14:24;12.73;;;8.80;;
17892;SDS011;9072;51.918;4.380;2023-11-21T06:17:00;10.93;;;7.80;;
17892;SDS011;9072;51.918;4.380;2023-11-21T06:19:44;13.37;;;8.20;;
17892;SDS011;9072;51.918;4.380;2023-11-21T06:22:24;10.80;;;7.50;;
17892;SDS011;9072;51.918;4.380;2023-11-21T06:24:55;11.47;;;8.17;;
17892;SDS011;9072;51.918;4.380;2023-11-21T06:27:27;11.83;;;7.90;;
17892;SDS011;9072;51.918;4.380;2023-11-21T06:30:04;12.80;;;8.77;;
17892;SDS011;9072;51.918;4.380;2023-11-21T06:32:36;11.27;;;8.23;;
17892;SDS011;9072;51.918;4.380;2023-11-21T06:35:23;12.40;;;8.70;;
17892;SDS011;9072;51.918;4.380;2023-11-21T06:37:58;11.27;;;7.90;;
17892;SDS011;9072;51.918;4.380;2023-11-21T06:40:34;9.87;;;8.00;;
17892;SDS011;9072;51.918;4.380;2023-11-21T06:43:12;13.90;;;8.80;;
17892;SDS011;9072;51.918;4.380;2023-11-21T06:45:41;10.63;;;8.03;;
17892;SDS011;9072;51.918;4.380;2023-11-21T06:48:11;15.80;;;9.17;;
17892;SDS011;9072;51.918;4.380;2023-11-21T06:50:58;17.33;;;9.60;;
17892;SDS011;9072;51.918;4.380;2023-11-21T06:53:38;21.67;;;7.57;;
17892;SDS011;9072;51.918;4.380;2023-11-21T06:56:40;29.77;;;9.67;;
17892;SDS011;9072;51.918;4.380;2023-11-21T06:59:07;17.30;;;8.67;;
17892;SDS011;9072;51.918;4.380;2023-11-21T07:01:39;14.20;;;8.63;;
17892;SDS011;9072;51.918;4.380;2023-11-21T07:04:10;14.60;;;8.60;;
17892;SDS011;9072;51.918;4.380;2023-11-21T07:09:26;13.87;;;8.43;;
17892;SDS011;9072;51.918;4.380;2023-11-21T07:12:00;13.33;;;8.50;;
17892;SDS011;9072;51.918;4.380;2023-11-21T07:14:32;14.97;;;8.27;;
17892;SDS011;9072;51.918;4.380;2023-11-21T07:17:01;13.63;;;7.77;;
17892;SDS011;9072;51.918;4.380;2023-11-21T07:19:33;15.13;;;8.70;;
17892;SDS011;9072;51.918;4.380;2023-11-21T07:22:03;15.97;;;8.47;;
17892;SDS011;9072;51.918;4.380;2023-11-21T07:24:39;18.33;;;9.40;;
17892;SDS011;9072;51.918;4.380;2023-11-21T07:27:17;13.77;;;9.03;;
17892;SDS011;9072;51.918;4.380;2023-11-21T07:29:59;14.20;;;9.23;;
17892;SDS011;9072;51.918;4.380;2023-11-21T07:32:31;16.03;;;9.53;;
17892;SDS011;9072;51.918;4.380;2023-11-21T07:35:05;14.43;;;9.60;;
17892;SDS011;9072;51.918;4.380;2023-11-21T07:37:37;16.57;;;10.27;;
17892;SDS011;9072;51.918;4.380;2023-11-21T07:40:07;12.80;;;9.03;;
17892;SDS011;9072;51.918;4.380;2023-11-21T07:42:48;16.60;;;9.30;;
17892;SDS011;9072;51.918;4.380;2023-11-21T07:45:27;16.80;;;9.93;;
17892;SDS011;9072;51.918;4.380;2023-11-21T07:47:58;15.87;;;9.20;;
17892;SDS011;9072;51.918;4.380;2023-11-21T07:50:31;17.70;;;9.33;;
17892;SDS011;9072;51.918;4.380;2023-11-21T07:53:07;15.60;;;9.83;;
17892;SDS011;9072;51.918;4.380;2023-11-21T07:55:43;14.53;;;8.33;;
17892;SDS011;9072;51.918;4.380;2023-11-21T07:58:12;15.07;;;9.00;;
17892;SDS011;9072;51.918;4.380;2023-11-21T08:00:42;16.33;;;8.30;;
17892;SDS011;9072;51.918;4.380;2023-11-21T08:03:13;14.80;;;8.80;;
17892;SDS011;9072;51.918;4.380;2023-11-21T08:05:42;15.07;;;9.33;;
17892;SDS011;9072;51.918;4.380;2023-11-21T08:08:21;13.17;;;8.50;;
17892;SDS011;9072;51.918;4.380;2023-11-21T08:10:51;15.13;;;9.00;;
17892;SDS011;9072;51.918;4.380;2023-11-21T08:13:22;16.37;;;8.57;;
17892;SDS011;9072;51.918;4.380;2023-11-21T08:15:57;14.73;;;9.93;;
17892;SDS011;9072;51.918;4.380;2023-11-21T08:18:28;18.97;;;9.80;;
17892;SDS011;9072;51.918;4.380;2023-11-21T08:21:03;15.00;;;9.77;;
17892;SDS011;9072;51.918;4.380;2023-11-21T08:23:34;15.43;;;8.63;;
17892;SDS011;9072;51.918;4.380;2023-11-21T08:26:22;12.97;;;7.80;;
17892;SDS011;9072;51.918;4.380;2023-11-21T08:28:50;12.27;;;7.50;;
17892;SDS011;9072;51.918;4.380;2023-11-21T08:31:28;13.37;;;7.83;;
17892;SDS011;9072;51.918;4.380;2023-11-21T08:33:56;9.77;;;7.27;;
17892;SDS011;9072;51.918;4.380;2023-11-21T08:36:25;12.87;;;7.63;;
17892;SDS011;9072;51.918;4.380;2023-11-21T08:38:54;10.70;;;7.00;;
17892;SDS011;9072;51.918;4.380;2023-11-21T08:41:23;9.90;;;6.60;;
17892;SDS011;9072;51.918;4.380;2023-11-21T08:43:55;11.83;;;6.60;;
17892;SDS011;9072;51.918;4.380;2023-11-21T08:46:26;8.83;;;6.47;;
17892;SDS011;9072;51.918;4.380;2023-11-21T08:48:55;9.33;;;6.30;;
17892;SDS011;9072;51.918;4.380;2023-11-21T08:51:26;13.47;;;6.93;;
17892;SDS011;9072;51.918;4.380;2023-11-21T08:54:01;13.30;;;6.63;;
17892;SDS011;9072;51.918;4.380;2023-11-21T08:56:32;10.60;;;5.40;;
17892;SDS011;9072;51.918;4.380;2023-11-21T08:59:10;11.10;;;5.70;;
17892;SDS011;9072;51.918;4.380;2023-11-21T09:01:40;9.00;;;5.07;;
17892;SDS011;9072;51.918;4.380;2023-11-21T09:04:07;13.80;;;5.67;;
17892;SDS011;9072;51.918;4.380;2023-11-21T09:06:40;11.37;;;5.13;;
17892;SDS011;9072;51.918;4.380;2023-11-21T09:09:13;13.47;;;6.00;;
17892;SDS011;9072;51.918;4.380;2023-11-21T09:11:41;13.53;;;5.60;;
17892;SDS011;9072;51.918;4.380;2023-11-21T09:14:10;12.20;;;5.20;;
17892;SDS011;9072;51.918;4.380;2023-11-21T09:16:41;11.67;;;6.00;;
17892;SDS011;9072;51.918;4.380;2023-11-21T09:19:12;11.90;;;5.73;;
17892;SDS011;9072;51.918;4.380;2023-11-21T09:21:40;9.93;;;5.00;;
17892;SDS011;9072;51.918;4.380;2023-11-21T09:24:11;12.93;;;5.70;;
17892;SDS011;9072;51.918;4.380;2023-11-21T09:26:45;11.33;;;5.53;;
17892;SDS011;9072;51.918;4.380;2023-11-21T09:29:12;13.67;;;6.03;;
17892;SDS011;9072;51.918;4.380;2023-11-21T09:31:41;14.97;;;6.00;;
17892;SDS011;9072;51.918;4.380;2023-11-21T09:34:09;13.20;;;5.83;;
17892;SDS011;9072;51.918;4.380;2023-11-21T09:36:38;12.20;;;6.57;;
17892;SDS011;9072;51.918;4.380;2023-11-21T09:39:06;9.80;;;6.10;;
17892;SDS011;9072;51.918;4.380;2023-11-21T09:41:40;16.33;;;6.53;;
17892;SDS011;9072;51.918;4.380;2023-11-21T09:44:13;12.20;;;6.33;;
17892;SDS011;9072;51.918;4.380;2023-11-21T09:46:44;13.63;;;6.23;;
17892;SDS011;9072;51.918;4.380;2023-11-21T09:49:14;9.73;;;5.53;;
17892;SDS011;9072;51.918;4.380;2023-11-21T09:51:44;8.53;;;5.53;;
17892;SDS011;9072;51.918;4.380;2023-11-21T09:54:13;8.67;;;5.77;;
17892;SDS011;9072;51.918;4.380;2023-11-21T09:56:45;9.27;;;5.97;;
17892;SDS011;9072;51.918;4.380;2023-11-21T09:59:13;10.93;;;5.70;;
17892;SDS011;9072;51.918;4.380;2023-11-21T10:01:43;6.30;;;5.47;;
17892;SDS011;9072;51.918;4.380;2023-11-21T10:04:11;11.40;;;5.90;;
17892;SDS011;9072;51.918;4.380;2023-11-21T10:06:39;8.87;;;5.37;;
17892;SDS011;9072;51.918;4.380;2023-11-21T10:09:07;9.23;;;6.53;;
17892;SDS011;9072;51.918;4.380;2023-11-21T10:11:38;9.17;;;5.60;;
17892;SDS011;9072;51.918;4.380;2023-11-21T10:14:10;8.10;;;5.60;;
17892;SDS011;9072;51.918;4.380;2023-11-21T10:16:39;7.67;;;5.30;;
17892;SDS011;9072;51.918;4.380;2023-11-21T10:19:09;10.27;;;5.70;;
17892;SDS011;9072;51.918;4.380;2023-11-21T10:21:39;7.93;;;5.97;;
17892;SDS011;9072;51.918;4.380;2023-11-21T10:24:06;9.77;;;5.90;;
17892;SDS011;9072;51.918;4.380;2023-11-21T10:26:33;10.17;;;5.83;;
17892;SDS011;9072;51.918;4.380;2023-11-21T10:29:02;7.57;;;6.07;;
17892;SDS011;9072;51.918;4.380;2023-11-21T10:31:31;8.00;;;6.10;;
17892;SDS011;9072;51.918;4.380;2023-11-21T10:34:11;9.23;;;6.03;;
17892;SDS011;9072;51.918;4.380;2023-11-21T10:36:42;10.43;;;6.57;;
17892;SDS011;9072;51.918;4.380;2023-11-21T10:39:09;8.57;;;6.10;;
17892;SDS011;9072;51.918;4.380;2023-11-21T10:41:43;7.77;;;6.97;;
17892;SDS011;9072;51.918;4.380;2023-11-21T10:44:13;9.60;;;7.63;;
17892;SDS011;9072;51.918;4.380;2023-11-21T10:46:46;9.53;;;7.30;;
17892;SDS011;9072;51.918;4.380;2023-11-21T10:49:15;9.97;;;7.93;;
17892;SDS011;9072;51.918;4.380;2023-11-21T10:51:43;9.30;;;8.00;;
17892;SDS011;9072;51.918;4.380;2023-11-21T10:54:11;10.47;;;8.23;;
17892;SDS011;9072;51.918;4.380;2023-11-21T10:57:04;10.57;;;8.30;;
17892;SDS011;9072;51.918;4.380;2023-11-21T10:59:32;13.00;;;8.87;;
17892;SDS011;9072;51.918;4.380;2023-11-21T11:02:07;13.07;;;8.73;;
17892;SDS011;9072;51.918;4.380;2023-11-21T11:04:46;12.20;;;8.60;;
17892;SDS011;9072;51.918;4.380;2023-11-21T11:07:14;12.43;;;8.67;;
17892;SDS011;9072;51.918;4.380;2023-11-21T11:09:43;12.70;;;9.20;;
17892;SDS011;9072;51.918;4.380;2023-11-21T11:12:14;11.57;;;8.07;;
17892;SDS011;9072;51.918;4.380;2023-11-21T11:14:44;11.43;;;8.17;;
17892;SDS011;9072;51.918;4.380;2023-11-21T11:17:15;12.50;;;7.50;;
17892;SDS011;9072;51.918;4.380;2023-11-21T11:19:46;10.60;;;8.37;;
17892;SDS011;9072;51.918;4.380;2023-11-21T11:22:17;12.03;;;9.10;;
17892;SDS011;9072;51.918;4.380;2023-11-21T11:25:03;12.40;;;9.53;;
17892;SDS011;9072;51.918;4.380;2023-11-21T11:27:47;13.53;;;8.97;;
17892;SDS011;9072;51.918;4.380;2023-11-21T11:30:21;12.70;;;8.40;;
17892;SDS011;9072;51.918;4.380;2023-11-21T11:33:07;10.87;;;7.50;;
17892;SDS011;9072;51.918;4.380;2023-11-21T11:35:42;9.53;;;6.67;;
17892;SDS011;9072;51.918;4.380;2023-11-21T11:38:16;10.43;;;7.67;;
17892;SDS011;9072;51.918;4.380;2023-11-21T11:40:45;10.77;;;7.10;;
17892;SDS011;9072;51.918;4.380;2023-11-21T11:43:14;10.00;;;7.50;;
17892;SDS011;9072;51.918;4.380;2023-11-21T11:45:51;9.10;;;6.90;;
17892;SDS011;9072;51.918;4.380;2023-11-21T11:48:23;11.20;;;7.17;;
17892;SDS011;9072;51.918;4.380;2023-11-21T11:51:03;12.97;;;7.43;;
17892;SDS011;9072;51.918;4.380;2023-11-21T11:53:37;11.70;;;8.00;;
17892;SDS011;9072;51.918;4.380;2023-11-21T11:56:19;8.23;;;7.10;;
17892;SDS011;9072;51.918;4.380;2023-11-21T11:58:55;9.43;;;7.13;;
17892;SDS011;9072;51.918;4.380;2023-11-21T12:01:26;9.73;;;7.13;;
17892;SDS011;9072;51.918;4.380;2023-11-21T12:07:02;11.27;;;7.53;;
17892;SDS011;9072;51.918;4.380;2023-11-21T12:09:30;9.93;;;7.30;;
17892;SDS011;9072;51.918;4.380;2023-11-21T12:12:02;8.93;;;7.57;;
17892;SDS011;9072;51.918;4.380;2023-11-21T12:14:31;9.57;;;8.57;;
17892;SDS011;9072;51.918;4.380;2023-11-21T12:16:59;10.37;;;8.10;;
17892;SDS011;9072;51.918;4.380;2023-11-21T12:19:31;10.13;;;7.97;;
17892;SDS011;9072;51.918;4.380;2023-11-21T12:21:59;10.63;;;8.60;;
17892;SDS011;9072;51.918;4.380;2023-11-21T12:24:27;10.50;;;7.83;;
17892;SDS011;9072;51.918;4.380;2023-11-21T12:26:58;11.33;;;8.70;;
17892;SDS011;9072;51.918;4.380;2023-11-21T12:29:28;12.87;;;8.87;;
17892;SDS011;9072;51.918;4.380;2023-11-21T12:31:56;11.27;;;8.47;;
17892;SDS011;9072;51.918;4.380;2023-11-21T12:34:23;13.00;;;8.70;;
17892;SDS011;9072;51.918;4.380;2023-11-21T12:36:51;12.00;;;7.80;;
17892;SDS011;9072;51.918;4.380;2023-11-21T12:39:19;12.23;;;8.67;;
17892;SDS011;9072;51.918;4.380;2023-11-21T12:41:48;11.67;;;8.83;;
17892;SDS011;9072;51.918;4.380;2023-11-21T12:44:16;13.73;;;9.37;;
17892;SDS011;9072;51.918;4.380;2023-11-21T12:46:43;12.87;;;8.33;;
17892;SDS011;9072;51.918;4.380;2023-11-21T12:49:11;10.73;;;8.10;;
17892;SDS011;9072;51.918;4.380;2023-11-21T12:51:42;11.03;;;7.53;;
17892;SDS011;9072;51.918;4.380;2023-11-21T12:54:11;11.27;;;7.00;;
17892;SDS011;9072;51.918;4.380;2023-11-21T12:56:39;10.53;;;7.10;;
17892;SDS011;9072;51.918;4.380;2023-11-21T12:59:06;12.80;;;8.13;;
17892;SDS011;9072;51.918;4.380;2023-11-21T13:01:38;11.83;;;8.30;;
17892;SDS011;9072;51.918;4.380;2023-11-21T13:04:09;11.97;;;8.33;;
17892;SDS011;9072;51.918;4.380;2023-11-21T13:06:37;10.07;;;7.83;;
17892;SDS011;9072;51.918;4.380;2023-11-21T13:09:06;10.17;;;6.93;;
17892;SDS011;9072;51.918;4.380;2023-11-21T13:11:37;9.13;;;7.43;;
17892;SDS011;9072;51.918;4.380;2023-11-21T13:14:06;10.10;;;7.30;;
17892;SDS011;9072;51.918;4.380;2023-11-21T13:16:35;9.63;;;6.77;;
17892;SDS011;9072;51.918;4.380;2023-11-21T13:19:04;8.70;;;6.03;;
17892;SDS011;9072;51.918;4.380;2023-11-21T13:21:31;7.50;;;5.90;;
17892;SDS011;9072;51.918;4.380;2023-11-21T13:23:58;6.47;;;5.30;;
17892;SDS011;9072;51.918;4.380;2023-11-21T13:26:26;8.07;;;5.83;;
17892;SDS011;9072;51.918;4.380;2023-11-21T13:28:54;6.93;;;6.23;;
17892;SDS011;9072;51.918;4.380;2023-11-21T13:31:24;9.13;;;6.17;;
17892;SDS011;9072;51.918;4.380;2023-11-21T13:33:57;9.57;;;6.63;;
17892;SDS011;9072;51.918;4.380;2023-11-21T13:36:30;6.97;;;5.63;;
17892;SDS011;9072;51.918;4.380;2023-11-21T13:39:00;7.17;;;5.40;;
17892;SDS011;9072;51.918;4.380;2023-11-21T13:41:32;6.83;;;5.33;;
17892;SDS011;9072;51.918;4.380;2023-11-21T13:44:01;5.90;;;4.80;;
17892;SDS011;9072;51.918;4.380;2023-11-21T13:46:40;7.03;;;5.00;;
17892;SDS011;9072;51.918;4.380;2023-11-21T13:49:08;6.43;;;4.60;;
17892;SDS011;9072;51.918;4.380;2023-11-21T13:51:35;6.20;;;4.77;;
17892;SDS011;9072;51.918;4.380;2023-11-21T13:54:06;6.33;;;4.93;;
17892;SDS011;9072;51.918;4.380;2023-11-21T13:56:43;6.90;;;5.70;;
17892;SDS011;9072;51.918;4.380;2023-11-21T13:59:15;8.37;;;5.40;;
17892;SDS011;9072;51.918;4.380;2023-11-21T14:01:46;7.83;;;5.67;;
17892;SDS011;9072;51.918;4.380;2023-11-21T14:04:24;7.13;;;5.67;;
17892;SDS011;9072;51.918;4.380;2023-11-21T14:07:12;7.73;;;6.20;;
17892;SDS011;9072;51.918;4.380;2023-11-21T14:09:55;6.50;;;5.80;;
17892;SDS011;9072;51.918;4.380;2023-11-21T14:12:26;6.83;;;5.70;;
17892;SDS011;9072;51.918;4.380;2023-11-21T14:14:55;7.93;;;5.67;;
17892;SDS011;9072;51.918;4.380;2023-11-21T14:17:23;6.10;;;5.37;;
17892;SDS011;9072;51.918;4.380;2023-11-21T14:19:50;7.60;;;5.10;;
17892;SDS011;9072;51.918;4.380;2023-11-21T14:22:17;6.20;;;4.57;;
17892;SDS011;9072;51.918;4.380;2023-11-21T14:24:45;4.87;;;4.37;;
17892;SDS011;9072;51.918;4.380;2023-11-21T14:27:15;4.93;;;4.13;;
17892;SDS011;9072;51.918;4.380;2023-11-21T14:29:42;5.17;;;4.30;;
17892;SDS011;9072;51.918;4.380;2023-11-21T14:32:12;5.33;;;4.60;;
17892;SDS011;9072;51.918;4.380;2023-11-21T14:34:39;6.27;;;5.00;;
17892;SDS011;9072;51.918;4.380;2023-11-21T14:37:08;5.37;;;4.50;;
17892;SDS011;9072;51.918;4.380;2023-11-21T14:39:38;5.40;;;4.57;;
17892;SDS011;9072;51.918;4.380;2023-11-21T14:42:09;5.33;;;4.63;;
17892;SDS011;9072;51.918;4.380;2023-11-21T14:44:36;5.60;;;4.40;;
17892;SDS011;9072;51.918;4.380;2023-11-21T14:47:06;5.00;;;3.80;;
17892;SDS011;9072;51.918;4.380;2023-11-21T14:49:41;5.33;;;3.87;;
17892;SDS011;9072;51.918;4.380;2023-11-21T14:52:17;6.60;;;4.50;;
17892;SDS011;9072;51.918;4.380;2023-11-21T14:54:57;5.83;;;4.87;;
17892;SDS011;9072;51.918;4.380;2023-11-21T14:57:45;5.47;;;4.37;;
17892;SDS011;9072;51.918;4.380;2023-11-21T15:00:18;6.23;;;5.10;;
17892;SDS011;9072;51.918;4.380;2023-11-21T15:03:12;5.97;;;5.03;;
17892;SDS011;9072;51.918;4.380;2023-11-21T15:06:08;5.70;;;4.60;;
17892;SDS011;9072;51.918;4.380;2023-11-21T15:08:55;5.20;;;4.47;;
17892;SDS011;9072;51.918;4.380;2023-11-21T15:11:53;5.43;;;4.67;;
17892;SDS011;9072;51.918;4.380;2023-11-21T15:14:27;5.90;;;4.97;;
17892;SDS011;9072;51.918;4.380;2023-11-21T15:16:57;6.83;;;5.40;;
17892;SDS011;9072;51.918;4.380;2023-11-21T15:19:27;6.83;;;5.70;;
17892;SDS011;9072;51.918;4.380;2023-11-21T15:21:57;10.67;;;7.80;;
17892;SDS011;9072;51.918;4.380;2023-11-21T15:24:24;8.97;;;7.13;;